sensor_id;sensor_type;location;lat;lon;timestamp;temperature;humidity
62904;DHT22;49000;50.698;13.322;2023-02-08T00:01:56;-9.20;99.90
62904;DHT22;49000;50.698;13.322;2023-02-08T00:04:21;-9.50;99.90
62904;DHT22;49000;50.698;13.322;2023-02-08T00:06:47;-8.90;99.90
62904;DHT22;49000;50.698;13.322;2023-02-08T00:09:12;-8.90;99.90
62904;DHT22;49000;50.698;13.322;2023-02-08T00:11:38;-9.10;99.90
62904;DHT22;49000;50.698;13.322;2023-02-08T00:14:03;-9.10;99.90
62904;DHT22;49000;50.698;13.322;2023-02-08T00:16:29;-9.30;99.90
62904;DHT22;49000;50.698;13.322;2023-02-08T00:18:54;-9.20;99.90
62904;DHT22;49000;50.698;13.322;2023-02-08T00:21:20;-9.30;99.90
62904;DHT22;49000;50.698;13.322;2023-02-08T00:23:47;-9.30;99.90
62904;DHT22;49000;50.698;13.322;2023-02-08T00:26:13;-9.30;99.90
62904;DHT22;49000;50.698;13.322;2023-02-08T00:28:39;-9.80;99.90
62904;DHT22;49000;50.698;13.322;2023-02-08T00:31:05;-9.30;99.90
62904;DHT22;49000;50.698;13.322;2023-02-08T00:33:30;-9.80;99.90
62904;DHT22;49000;50.698;13.322;2023-02-08T00:36:00;-9.20;99.90
62904;DHT22;49000;50.698;13.322;2023-02-08T00:38:27;-9.20;99.90
62904;DHT22;49000;50.698;13.322;2023-02-08T00:40:52;-9.20;99.90
62904;DHT22;49000;50.698;13.322;2023-02-08T00:43:18;-9.20;99.90
62904;DHT22;49000;50.698;13.322;2023-02-08T00:45:43;-9.10;99.90
62904;DHT22;49000;50.698;13.322;2023-02-08T00:48:09;-9.60;99.90
62904;DHT22;49000;50.698;13.322;2023-02-08T00:50:34;-9.60;99.90
62904;DHT22;49000;50.698;13.322;2023-02-08T00:53:00;-9.30;99.90
62904;DHT22;49000;50.698;13.322;2023-02-08T00:55:25;-9.60;99.90
62904;DHT22;49000;50.698;13.322;2023-02-08T00:57:50;-9.10;99.90
62904;DHT22;49000;50.698;13.322;2023-02-08T01:00:16;-9.40;99.90
62904;DHT22;49000;50.698;13.322;2023-02-08T01:02:42;-9.40;99.90
62904;DHT22;49000;50.698;13.322;2023-02-08T01:05:07;-9.50;99.90
62904;DHT22;49000;50.698;13.322;2023-02-08T01:07:35;-9.30;99.90
62904;DHT22;49000;50.698;13.322;2023-02-08T01:10:01;-9.30;99.90
62904;DHT22;49000;50.698;13.322;2023-02-08T01:12:27;-9.20;99.90
62904;DHT22;49000;50.698;13.322;2023-02-08T01:14:52;-9.40;99.90
62904;DHT22;49000;50.698;13.322;2023-02-08T01:17:18;-9.90;99.90
62904;DHT22;49000;50.698;13.322;2023-02-08T01:19:43;-9.90;99.90
62904;DHT22;49000;50.698;13.322;2023-02-08T01:22:09;-9.50;99.90
62904;DHT22;49000;50.698;13.322;2023-02-08T01:24:34;-9.70;99.90
62904;DHT22;49000;50.698;13.322;2023-02-08T01:27:00;-9.50;99.90
62904;DHT22;49000;50.698;13.322;2023-02-08T01:29:25;-9.40;99.90
62904;DHT22;49000;50.698;13.322;2023-02-08T01:31:51;-9.40;99.90
62904;DHT22;49000;50.698;13.322;2023-02-08T01:34:16;-9.50;99.90
62904;DHT22;49000;50.698;13.322;2023-02-08T01:36:42;-9.50;99.90
62904;DHT22;49000;50.698;13.322;2023-02-08T01:39:09;-9.60;99.90
62904;DHT22;49000;50.698;13.322;2023-02-08T01:41:38;-10.00;99.90
62904;DHT22;49000;50.698;13.322;2023-02-08T01:46:38;-9.50;99.90
62904;DHT22;49000;50.698;13.322;2023-02-08T01:49:09;-9.30;99.90
62904;DHT22;49000;50.698;13.322;2023-02-08T01:51:39;-9.40;99.90
62904;DHT22;49000;50.698;13.322;2023-02-08T01:54:08;-9.70;99.90
62904;DHT22;49000;50.698;13.322;2023-02-08T01:56:37;-9.30;99.90
62904;DHT22;49000;50.698;13.322;2023-02-08T01:59:08;-9.30;99.90
62904;DHT22;49000;50.698;13.322;2023-02-08T02:01:35;-9.20;99.90
62904;DHT22;49000;50.698;13.322;2023-02-08T02:04:04;-9.60;99.90
62904;DHT22;49000;50.698;13.322;2023-02-08T02:06:36;-9.10;99.90
62904;DHT22;49000;50.698;13.322;2023-02-08T02:09:21;-9.40;99.90
62904;DHT22;49000;50.698;13.322;2023-02-08T02:11:49;-9.40;99.90
62904;DHT22;49000;50.698;13.322;2023-02-08T02:14:14;-9.60;99.90
62904;DHT22;49000;50.698;13.322;2023-02-08T02:16:40;-9.40;99.90
62904;DHT22;49000;50.698;13.322;2023-02-08T02:19:10;-9.50;99.90
62904;DHT22;49000;50.698;13.322;2023-02-08T02:22:06;-9.80;99.90
62904;DHT22;49000;50.698;13.322;2023-02-08T02:30:19;-9.50;99.90
62904;DHT22;49000;50.698;13.322;2023-02-08T02:36:01;-9.40;99.90
62904;DHT22;49000;50.698;13.322;2023-02-08T02:44:08;-9.60;99.90
62904;DHT22;49000;50.698;13.322;2023-02-08T02:46:45;-9.40;99.90
62904;DHT22;49000;50.698;13.322;2023-02-08T02:49:22;-9.60;99.90
62904;DHT22;49000;50.698;13.322;2023-02-08T02:52:02;-9.60;99.90
62904;DHT22;49000;50.698;13.322;2023-02-08T02:54:37;-9.40;99.90
62904;DHT22;49000;50.698;13.322;2023-02-08T02:57:09;-9.90;99.90
62904;DHT22;49000;50.698;13.322;2023-02-08T02:59:37;-9.40;99.90
62904;DHT22;49000;50.698;13.322;2023-02-08T03:02:03;-10.00;99.90
62904;DHT22;49000;50.698;13.322;2023-02-08T03:21:11;-9.40;99.90
62904;DHT22;49000;50.698;13.322;2023-02-08T03:23:48;-9.40;99.90
62904;DHT22;49000;50.698;13.322;2023-02-08T03:26:27;-9.50;99.90
62904;DHT22;49000;50.698;13.322;2023-02-08T03:29:06;-9.30;99.90
62904;DHT22;49000;50.698;13.322;2023-02-08T03:32:00;-9.20;99.90
62904;DHT22;49000;50.698;13.322;2023-02-08T03:37:08;-9.10;99.90
62904;DHT22;49000;50.698;13.322;2023-02-08T03:39:36;-9.20;99.90
62904;DHT22;49000;50.698;13.322;2023-02-08T03:42:07;-9.10;99.90
62904;DHT22;49000;50.698;13.322;2023-02-08T03:44:41;-9.50;99.90
62904;DHT22;49000;50.698;13.322;2023-02-08T03:47:17;-9.50;99.90
62904;DHT22;49000;50.698;13.322;2023-02-08T03:49:44;-9.00;99.90
62904;DHT22;49000;50.698;13.322;2023-02-08T03:52:13;-8.90;99.90
62904;DHT22;49000;50.698;13.322;2023-02-08T03:54:44;-8.90;99.90
62904;DHT22;49000;50.698;13.322;2023-02-08T03:57:25;-8.90;99.90
62904;DHT22;49000;50.698;13.322;2023-02-08T04:00:11;-8.80;99.90
62904;DHT22;49000;50.698;13.322;2023-02-08T04:02:46;-8.80;99.90
62904;DHT22;49000;50.698;13.322;2023-02-08T04:05:12;-8.80;99.90
62904;DHT22;49000;50.698;13.322;2023-02-08T04:07:38;-8.80;99.90
62904;DHT22;49000;50.698;13.322;2023-02-08T04:10:04;-9.10;99.90
62904;DHT22;49000;50.698;13.322;2023-02-08T04:12:29;-8.70;99.90
62904;DHT22;49000;50.698;13.322;2023-02-08T04:14:55;-9.20;99.90
62904;DHT22;49000;50.698;13.322;2023-02-08T04:17:20;-8.80;99.90
62904;DHT22;49000;50.698;13.322;2023-02-08T04:19:46;-8.60;99.90
62904;DHT22;49000;50.698;13.322;2023-02-08T04:22:11;-8.80;99.90
62904;DHT22;49000;50.698;13.322;2023-02-08T04:24:37;-8.80;99.90
62904;DHT22;49000;50.698;13.322;2023-02-08T04:27:02;-8.90;99.90
62904;DHT22;49000;50.698;13.322;2023-02-08T04:29:28;-9.10;99.90
62904;DHT22;49000;50.698;13.322;2023-02-08T04:31:53;-8.90;99.90
62904;DHT22;49000;50.698;13.322;2023-02-08T04:34:19;-8.80;99.90
62904;DHT22;49000;50.698;13.322;2023-02-08T04:36:44;-9.00;99.90
62904;DHT22;49000;50.698;13.322;2023-02-08T04:39:09;-8.80;99.90
62904;DHT22;49000;50.698;13.322;2023-02-08T04:41:35;-8.80;99.90
62904;DHT22;49000;50.698;13.322;2023-02-08T04:44:00;-8.90;99.90
62904;DHT22;49000;50.698;13.322;2023-02-08T04:46:26;-8.80;99.90
62904;DHT22;49000;50.698;13.322;2023-02-08T04:48:51;-8.70;99.90
62904;DHT22;49000;50.698;13.322;2023-02-08T04:51:17;-9.20;99.90
62904;DHT22;49000;50.698;13.322;2023-02-08T04:53:42;-9.00;99.90
62904;DHT22;49000;50.698;13.322;2023-02-08T04:56:08;-9.20;99.90
62904;DHT22;49000;50.698;13.322;2023-02-08T04:58:35;-8.70;99.90
62904;DHT22;49000;50.698;13.322;2023-02-08T05:01:04;-8.60;99.90
62904;DHT22;49000;50.698;13.322;2023-02-08T05:03:29;-8.50;99.90
62904;DHT22;49000;50.698;13.322;2023-02-08T05:05:57;-8.70;99.90
62904;DHT22;49000;50.698;13.322;2023-02-08T05:08:22;-9.20;99.90
62904;DHT22;49000;50.698;13.322;2023-02-08T05:10:48;-8.70;99.90
62904;DHT22;49000;50.698;13.322;2023-02-08T05:13:13;-8.60;99.90
62904;DHT22;49000;50.698;13.322;2023-02-08T05:15:39;-8.90;99.90
62904;DHT22;49000;50.698;13.322;2023-02-08T05:18:04;-8.80;99.90
62904;DHT22;49000;50.698;13.322;2023-02-08T05:20:30;-8.80;99.90
62904;DHT22;49000;50.698;13.322;2023-02-08T05:22:56;-8.70;99.90
62904;DHT22;49000;50.698;13.322;2023-02-08T05:25:21;-9.30;99.90
62904;DHT22;49000;50.698;13.322;2023-02-08T05:27:47;-8.90;99.90
62904;DHT22;49000;50.698;13.322;2023-02-08T05:30:12;-9.00;99.90
62904;DHT22;49000;50.698;13.322;2023-02-08T05:32:38;-9.30;99.90
62904;DHT22;49000;50.698;13.322;2023-02-08T05:35:03;-8.60;99.90
62904;DHT22;49000;50.698;13.322;2023-02-08T05:37:29;-8.60;99.90
62904;DHT22;49000;50.698;13.322;2023-02-08T05:39:54;-8.50;99.90
62904;DHT22;49000;50.698;13.322;2023-02-08T05:42:20;-8.50;99.90
62904;DHT22;49000;50.698;13.322;2023-02-08T05:44:45;-8.30;99.90
62904;DHT22;49000;50.698;13.322;2023-02-08T05:47:11;-7.90;99.90
62904;DHT22;49000;50.698;13.322;2023-02-08T05:49:36;-7.70;99.90
62904;DHT22;49000;50.698;13.322;2023-02-08T05:52:02;-7.50;99.90
62904;DHT22;49000;50.698;13.322;2023-02-08T05:54:27;-7.50;99.90
62904;DHT22;49000;50.698;13.322;2023-02-08T05:56:53;-7.80;99.90
62904;DHT22;49000;50.698;13.322;2023-02-08T05:59:18;-7.00;99.90
62904;DHT22;49000;50.698;13.322;2023-02-08T06:01:44;-7.40;99.90
62904;DHT22;49000;50.698;13.322;2023-02-08T06:04:09;-7.00;99.90
62904;DHT22;49000;50.698;13.322;2023-02-08T06:06:35;-7.10;99.90
62904;DHT22;49000;50.698;13.322;2023-02-08T06:09:00;-6.60;99.90
62904;DHT22;49000;50.698;13.322;2023-02-08T06:11:26;-6.70;99.90
62904;DHT22;49000;50.698;13.322;2023-02-08T06:13:52;-6.60;99.90
62904;DHT22;49000;50.698;13.322;2023-02-08T06:16:17;-6.60;99.90
62904;DHT22;49000;50.698;13.322;2023-02-08T06:18:43;-6.80;99.90
62904;DHT22;49000;50.698;13.322;2023-02-08T06:21:08;-6.80;99.90
62904;DHT22;49000;50.698;13.322;2023-02-08T06:23:34;-7.30;99.90
62904;DHT22;49000;50.698;13.322;2023-02-08T06:26:00;-6.70;99.90
62904;DHT22;49000;50.698;13.322;2023-02-08T06:28:26;-7.10;99.90
62904;DHT22;49000;50.698;13.322;2023-02-08T06:30:51;-6.60;99.90
62904;DHT22;49000;50.698;13.322;2023-02-08T06:33:17;-7.40;99.90
62904;DHT22;49000;50.698;13.322;2023-02-08T06:35:44;-6.50;99.90
62904;DHT22;49000;50.698;13.322;2023-02-08T06:38:11;-6.80;99.90
62904;DHT22;49000;50.698;13.322;2023-02-08T06:40:36;-6.80;99.90
62904;DHT22;49000;50.698;13.322;2023-02-08T06:43:02;-6.80;99.90
62904;DHT22;49000;50.698;13.322;2023-02-08T06:45:27;-7.30;99.90
62904;DHT22;49000;50.698;13.322;2023-02-08T06:47:53;-6.90;99.90
62904;DHT22;49000;50.698;13.322;2023-02-08T06:50:18;-6.90;99.90
62904;DHT22;49000;50.698;13.322;2023-02-08T06:52:44;-7.00;99.90
62904;DHT22;49000;50.698;13.322;2023-02-08T06:55:09;-7.00;99.90
62904;DHT22;49000;50.698;13.322;2023-02-08T06:57:35;-7.10;99.90
62904;DHT22;49000;50.698;13.322;2023-02-08T07:00:00;-7.00;99.90
62904;DHT22;49000;50.698;13.322;2023-02-08T07:02:26;-7.60;99.90
62904;DHT22;49000;50.698;13.322;2023-02-08T07:04:52;-7.10;99.90
62904;DHT22;49000;50.698;13.322;2023-02-08T07:07:17;-7.20;99.90
62904;DHT22;49000;50.698;13.322;2023-02-08T07:09:43;-7.50;99.90
62904;DHT22;49000;50.698;13.322;2023-02-08T07:12:09;-7.50;99.90
62904;DHT22;49000;50.698;13.322;2023-02-08T07:14:37;-7.40;99.90
62904;DHT22;49000;50.698;13.322;2023-02-08T07:17:03;-7.80;99.90
62904;DHT22;49000;50.698;13.322;2023-02-08T07:19:29;-7.40;99.90
62904;DHT22;49000;50.698;13.322;2023-02-08T07:21:54;-7.30;99.90
62904;DHT22;49000;50.698;13.322;2023-02-08T07:24:20;-7.90;99.90
62904;DHT22;49000;50.698;13.322;2023-02-08T07:26:46;-7.30;99.90
62904;DHT22;49000;50.698;13.322;2023-02-08T07:29:11;-7.70;99.90
62904;DHT22;49000;50.698;13.322;2023-02-08T07:31:37;-7.60;99.90
62904;DHT22;49000;50.698;13.322;2023-02-08T07:34:02;-7.60;99.90
62904;DHT22;49000;50.698;13.322;2023-02-08T07:36:28;-7.60;99.90
62904;DHT22;49000;50.698;13.322;2023-02-08T07:38:53;-7.40;99.90
62904;DHT22;49000;50.698;13.322;2023-02-08T07:41:19;-7.50;99.90
62904;DHT22;49000;50.698;13.322;2023-02-08T07:43:44;-7.50;99.90
62904;DHT22;49000;50.698;13.322;2023-02-08T07:46:12;-7.80;99.90
62904;DHT22;49000;50.698;13.322;2023-02-08T07:48:38;-7.30;99.90
62904;DHT22;49000;50.698;13.322;2023-02-08T07:51:04;-7.20;99.90
62904;DHT22;49000;50.698;13.322;2023-02-08T07:53:30;-7.00;99.90
62904;DHT22;49000;50.698;13.322;2023-02-08T07:55:56;-6.90;99.90
62904;DHT22;49000;50.698;13.322;2023-02-08T07:58:22;-6.80;99.90
62904;DHT22;49000;50.698;13.322;2023-02-08T08:00:47;-6.60;99.90
62904;DHT22;49000;50.698;13.322;2023-02-08T08:03:13;-7.00;99.90
62904;DHT22;49000;50.698;13.322;2023-02-08T08:05:39;-6.70;99.90
62904;DHT22;49000;50.698;13.322;2023-02-08T08:08:05;-6.60;99.90
62904;DHT22;49000;50.698;13.322;2023-02-08T08:10:31;-6.40;99.90
62904;DHT22;49000;50.698;13.322;2023-02-08T08:12:56;-6.10;99.90
62904;DHT22;49000;50.698;13.322;2023-02-08T08:15:22;-6.00;99.90
62904;DHT22;49000;50.698;13.322;2023-02-08T08:17:47;-6.10;99.90
62904;DHT22;49000;50.698;13.322;2023-02-08T08:20:12;-6.20;99.90
62904;DHT22;49000;50.698;13.322;2023-02-08T08:22:38;-6.10;99.90
62904;DHT22;49000;50.698;13.322;2023-02-08T08:25:04;-5.60;99.90
62904;DHT22;49000;50.698;13.322;2023-02-08T08:27:29;-5.90;99.90
62904;DHT22;49000;50.698;13.322;2023-02-08T08:29:55;-5.60;99.90
62904;DHT22;49000;50.698;13.322;2023-02-08T08:32:20;-5.90;99.90
62904;DHT22;49000;50.698;13.322;2023-02-08T08:34:46;-5.80;99.90
62904;DHT22;49000;50.698;13.322;2023-02-08T08:37:11;-5.40;99.90
62904;DHT22;49000;50.698;13.322;2023-02-08T08:39:37;-5.90;99.90
62904;DHT22;49000;50.698;13.322;2023-02-08T08:42:03;-5.70;99.90
62904;DHT22;49000;50.698;13.322;2023-02-08T08:44:29;-5.20;99.90
62904;DHT22;49000;50.698;13.322;2023-02-08T08:46:58;-5.10;99.90
62904;DHT22;49000;50.698;13.322;2023-02-08T08:49:25;-5.00;99.90
62904;DHT22;49000;50.698;13.322;2023-02-08T08:51:51;-5.00;99.90
62904;DHT22;49000;50.698;13.322;2023-02-08T08:54:17;-4.70;99.90
62904;DHT22;49000;50.698;13.322;2023-02-08T08:56:42;-5.10;99.90
62904;DHT22;49000;50.698;13.322;2023-02-08T08:59:08;-4.60;99.90
62904;DHT22;49000;50.698;13.322;2023-02-08T09:01:33;-4.80;99.90
62904;DHT22;49000;50.698;13.322;2023-02-08T09:03:59;-5.00;99.90
62904;DHT22;49000;50.698;13.322;2023-02-08T09:06:24;-4.70;99.90
62904;DHT22;49000;50.698;13.322;2023-02-08T09:08:49;-4.50;99.90
62904;DHT22;49000;50.698;13.322;2023-02-08T09:11:15;-4.60;99.90
62904;DHT22;49000;50.698;13.322;2023-02-08T09:13:41;-4.50;99.90
62904;DHT22;49000;50.698;13.322;2023-02-08T09:16:10;-4.20;99.90
62904;DHT22;49000;50.698;13.322;2023-02-08T09:18:36;-4.20;99.90
62904;DHT22;49000;50.698;13.322;2023-02-08T09:21:06;-4.00;99.90
62904;DHT22;49000;50.698;13.322;2023-02-08T09:23:32;-4.10;99.90
62904;DHT22;49000;50.698;13.322;2023-02-08T09:25:57;-4.40;99.90
62904;DHT22;49000;50.698;13.322;2023-02-08T09:28:23;-4.00;99.90
62904;DHT22;49000;50.698;13.322;2023-02-08T09:30:49;-4.10;99.90
62904;DHT22;49000;50.698;13.322;2023-02-08T09:33:14;-3.20;99.90
62904;DHT22;49000;50.698;13.322;2023-02-08T09:35:39;-3.40;99.90
62904;DHT22;49000;50.698;13.322;2023-02-08T09:38:05;-3.00;99.90
62904;DHT22;49000;50.698;13.322;2023-02-08T09:40:40;-2.80;99.90
62904;DHT22;49000;50.698;13.322;2023-02-08T09:43:17;-2.80;99.90
62904;DHT22;49000;50.698;13.322;2023-02-08T09:45:49;-3.00;99.90
62904;DHT22;49000;50.698;13.322;2023-02-08T09:48:27;-3.20;99.90
62904;DHT22;49000;50.698;13.322;2023-02-08T09:51:00;-2.80;99.90
62904;DHT22;49000;50.698;13.322;2023-02-08T09:53:43;-3.00;99.90
62904;DHT22;49000;50.698;13.322;2023-02-08T09:56:17;-2.20;99.90
62904;DHT22;49000;50.698;13.322;2023-02-08T09:58:50;-2.30;99.90
62904;DHT22;49000;50.698;13.322;2023-02-08T10:01:23;-2.60;99.90
62904;DHT22;49000;50.698;13.322;2023-02-08T10:03:52;-3.10;99.90
62904;DHT22;49000;50.698;13.322;2023-02-08T10:06:20;-2.60;99.90
62904;DHT22;49000;50.698;13.322;2023-02-08T10:08:49;-2.60;99.90
62904;DHT22;49000;50.698;13.322;2023-02-08T10:11:28;-2.30;99.90
62904;DHT22;49000;50.698;13.322;2023-02-08T10:14:15;-2.20;99.90
62904;DHT22;49000;50.698;13.322;2023-02-08T10:23:02;-1.70;96.60
62904;DHT22;49000;50.698;13.322;2023-02-08T10:25:59;-1.40;99.50
62904;DHT22;49000;50.698;13.322;2023-02-08T10:28:53;-1.00;99.20
62904;DHT22;49000;50.698;13.322;2023-02-08T10:31:34;-0.90;91.60
62904;DHT22;49000;50.698;13.322;2023-02-08T10:34:28;-1.50;81.70
62904;DHT22;49000;50.698;13.322;2023-02-08T10:36:56;-1.80;91.10
62904;DHT22;49000;50.698;13.322;2023-02-08T10:39:27;-1.90;94.30
62904;DHT22;49000;50.698;13.322;2023-02-08T10:41:53;-2.00;93.60
62904;DHT22;49000;50.698;13.322;2023-02-08T10:47:13;-1.20;93.90
62904;DHT22;49000;50.698;13.322;2023-02-08T10:49:52;-1.40;90.50
62904;DHT22;49000;50.698;13.322;2023-02-08T10:52:19;-1.30;80.60
62904;DHT22;49000;50.698;13.322;2023-02-08T10:54:44;-2.10;83.30
62904;DHT22;49000;50.698;13.322;2023-02-08T10:57:17;-1.70;84.00
62904;DHT22;49000;50.698;13.322;2023-02-08T10:59:48;-1.40;79.70
62904;DHT22;49000;50.698;13.322;2023-02-08T11:02:27;-1.30;84.40
62904;DHT22;49000;50.698;13.322;2023-02-08T11:05:47;-1.30;82.60
62904;DHT22;49000;50.698;13.322;2023-02-08T11:08:16;-0.90;80.90
62904;DHT22;49000;50.698;13.322;2023-02-08T11:11:04;-0.70;74.50
62904;DHT22;49000;50.698;13.322;2023-02-08T11:13:41;-0.30;67.80
62904;DHT22;49000;50.698;13.322;2023-02-08T11:16:19;-0.60;66.10
62904;DHT22;49000;50.698;13.322;2023-02-08T11:18:53;-0.50;67.90
62904;DHT22;49000;50.698;13.322;2023-02-08T11:21:36;-0.80;55.40
62904;DHT22;49000;50.698;13.322;2023-02-08T11:26:51;-0.70;64.20
62904;DHT22;49000;50.698;13.322;2023-02-08T11:29:22;-0.90;57.90
62904;DHT22;49000;50.698;13.322;2023-02-08T11:34:32;-0.60;61.00
62904;DHT22;49000;50.698;13.322;2023-02-08T11:37:01;-0.10;60.30
62904;DHT22;49000;50.698;13.322;2023-02-08T11:39:38;0.00;54.20
62904;DHT22;49000;50.698;13.322;2023-02-08T11:42:05;0.10;58.40
62904;DHT22;49000;50.698;13.322;2023-02-08T11:44:35;0.00;54.00
62904;DHT22;49000;50.698;13.322;2023-02-08T11:47:05;0.30;44.90
62904;DHT22;49000;50.698;13.322;2023-02-08T11:49:42;0.00;47.20
62904;DHT22;49000;50.698;13.322;2023-02-08T11:52:23;-0.10;47.20
62904;DHT22;49000;50.698;13.322;2023-02-08T11:54:50;0.20;47.60
62904;DHT22;49000;50.698;13.322;2023-02-08T11:57:20;0.20;47.60
62904;DHT22;49000;50.698;13.322;2023-02-08T11:59:47;0.50;47.50
62904;DHT22;49000;50.698;13.322;2023-02-08T12:04:56;0.50;40.90
62904;DHT22;49000;50.698;13.322;2023-02-08T12:07:23;0.70;38.50
62904;DHT22;49000;50.698;13.322;2023-02-08T12:10:11;0.40;32.70
62904;DHT22;49000;50.698;13.322;2023-02-08T12:18:05;0.60;35.50
62904;DHT22;49000;50.698;13.322;2023-02-08T12:20:36;0.80;34.70
62904;DHT22;49000;50.698;13.322;2023-02-08T12:26:19;0.70;28.70
62904;DHT22;49000;50.698;13.322;2023-02-08T12:29:07;0.80;32.70
62904;DHT22;49000;50.698;13.322;2023-02-08T12:31:53;1.00;29.20
62904;DHT22;49000;50.698;13.322;2023-02-08T12:37:45;1.30;28.50
62904;DHT22;49000;50.698;13.322;2023-02-08T12:40:44;1.30;28.40
62904;DHT22;49000;50.698;13.322;2023-02-08T12:43:45;1.10;27.40
62904;DHT22;49000;50.698;13.322;2023-02-08T12:48:55;0.80;29.00
62904;DHT22;49000;50.698;13.322;2023-02-08T12:51:44;1.10;30.60
62904;DHT22;49000;50.698;13.322;2023-02-08T12:54:16;1.30;28.30
62904;DHT22;49000;50.698;13.322;2023-02-08T12:56:45;1.20;26.30
62904;DHT22;49000;50.698;13.322;2023-02-08T12:59:30;1.20;25.60
62904;DHT22;49000;50.698;13.322;2023-02-08T13:02:00;0.80;27.50
62904;DHT22;49000;50.698;13.322;2023-02-08T13:04:33;0.80;29.70
62904;DHT22;49000;50.698;13.322;2023-02-08T13:07:03;1.00;28.20
62904;DHT22;49000;50.698;13.322;2023-02-08T13:12:46;0.80;28.90
62904;DHT22;49000;50.698;13.322;2023-02-08T13:15:20;0.70;29.10
62904;DHT22;49000;50.698;13.322;2023-02-08T13:17:51;1.20;27.20
62904;DHT22;49000;50.698;13.322;2023-02-08T13:20:42;0.90;30.00
62904;DHT22;49000;50.698;13.322;2023-02-08T13:23:17;1.00;29.20
62904;DHT22;49000;50.698;13.322;2023-02-08T13:25:44;1.10;30.00
62904;DHT22;49000;50.698;13.322;2023-02-08T13:28:18;1.10;28.20
62904;DHT22;49000;50.698;13.322;2023-02-08T13:30:45;0.80;29.30
62904;DHT22;49000;50.698;13.322;2023-02-08T13:33:20;0.80;32.90
62904;DHT22;49000;50.698;13.322;2023-02-08T13:35:50;1.20;28.20
62904;DHT22;49000;50.698;13.322;2023-02-08T13:38:27;0.30;29.50
62904;DHT22;49000;50.698;13.322;2023-02-08T13:41:23;0.40;30.10
62904;DHT22;49000;50.698;13.322;2023-02-08T13:44:07;0.40;32.40
62904;DHT22;49000;50.698;13.322;2023-02-08T13:46:36;0.70;33.70
62904;DHT22;49000;50.698;13.322;2023-02-08T13:49:03;0.50;32.70
62904;DHT22;49000;50.698;13.322;2023-02-08T13:56:43;0.30;35.40
62904;DHT22;49000;50.698;13.322;2023-02-08T13:59:29;-0.20;38.80
62904;DHT22;49000;50.698;13.322;2023-02-08T14:04:46;0.30;41.80
62904;DHT22;49000;50.698;13.322;2023-02-08T14:07:23;0.00;38.20
62904;DHT22;49000;50.698;13.322;2023-02-08T14:13:02;0.30;39.30
62904;DHT22;49000;50.698;13.322;2023-02-08T14:15:35;0.20;39.80
62904;DHT22;49000;50.698;13.322;2023-02-08T14:18:02;0.40;40.60
62904;DHT22;49000;50.698;13.322;2023-02-08T14:20:37;0.40;39.50
62904;DHT22;49000;50.698;13.322;2023-02-08T14:23:21;0.50;38.90
62904;DHT22;49000;50.698;13.322;2023-02-08T14:25:49;0.20;41.50
62904;DHT22;49000;50.698;13.322;2023-02-08T14:28:42;0.10;40.20
62904;DHT22;49000;50.698;13.322;2023-02-08T14:31:09;0.10;40.60
62904;DHT22;49000;50.698;13.322;2023-02-08T14:33:40;-0.60;40.90
62904;DHT22;49000;50.698;13.322;2023-02-08T14:36:27;-0.10;41.50
62904;DHT22;49000;50.698;13.322;2023-02-08T14:47:49;0.00;41.60
62904;DHT22;49000;50.698;13.322;2023-02-08T14:50:15;0.00;42.20
62904;DHT22;49000;50.698;13.322;2023-02-08T14:52:52;0.20;40.30
62904;DHT22;49000;50.698;13.322;2023-02-08T14:55:24;0.30;45.60
62904;DHT22;49000;50.698;13.322;2023-02-08T14:57:56;0.30;41.50
62904;DHT22;49000;50.698;13.322;2023-02-08T15:00:27;0.00;42.40
62904;DHT22;49000;50.698;13.322;2023-02-08T15:02:55;-0.10;42.40
62904;DHT22;49000;50.698;13.322;2023-02-08T15:05:24;-0.10;43.90
62904;DHT22;49000;50.698;13.322;2023-02-08T15:07:52;-0.10;47.80
62904;DHT22;49000;50.698;13.322;2023-02-08T15:10:20;0.00;44.10
62904;DHT22;49000;50.698;13.322;2023-02-08T15:12:50;-0.20;44.20
62904;DHT22;49000;50.698;13.322;2023-02-08T15:15:38;-0.10;48.00
62904;DHT22;49000;50.698;13.322;2023-02-08T15:18:15;-0.50;44.40
62904;DHT22;49000;50.698;13.322;2023-02-08T15:20:42;-1.30;50.00
62904;DHT22;49000;50.698;13.322;2023-02-08T15:23:19;-1.00;54.90
62904;DHT22;49000;50.698;13.322;2023-02-08T15:26:03;-1.00;57.60
62904;DHT22;49000;50.698;13.322;2023-02-08T15:28:33;-1.00;55.00
62904;DHT22;49000;50.698;13.322;2023-02-08T15:33:29;-0.90;55.70
62904;DHT22;49000;50.698;13.322;2023-02-08T15:36:01;-1.00;56.20
62904;DHT22;49000;50.698;13.322;2023-02-08T15:38:27;-1.00;57.40
62904;DHT22;49000;50.698;13.322;2023-02-08T15:41:14;-1.20;56.80
62904;DHT22;49000;50.698;13.322;2023-02-08T15:43:40;-1.40;56.90
62904;DHT22;49000;50.698;13.322;2023-02-08T15:46:21;-1.30;59.60
62904;DHT22;49000;50.698;13.322;2023-02-08T15:48:49;-1.00;60.10
62904;DHT22;49000;50.698;13.322;2023-02-08T15:51:16;-1.40;58.20
62904;DHT22;49000;50.698;13.322;2023-02-08T15:53:46;-1.80;56.70
62904;DHT22;49000;50.698;13.322;2023-02-08T15:56:22;-1.30;52.20
62904;DHT22;49000;50.698;13.322;2023-02-08T15:58:52;-1.40;50.80
62904;DHT22;49000;50.698;13.322;2023-02-08T16:01:20;-1.80;50.40
62904;DHT22;49000;50.698;13.322;2023-02-08T16:03:48;-2.00;54.20
62904;DHT22;49000;50.698;13.322;2023-02-08T16:06:21;-1.90;53.40
62904;DHT22;49000;50.698;13.322;2023-02-08T16:08:49;-2.20;57.90
62904;DHT22;49000;50.698;13.322;2023-02-08T16:11:25;-3.00;84.80
62904;DHT22;49000;50.698;13.322;2023-02-08T16:13:53;-2.50;96.40
62904;DHT22;49000;50.698;13.322;2023-02-08T16:16:44;-2.90;99.90
62904;DHT22;49000;50.698;13.322;2023-02-08T16:19:30;-2.80;99.90
62904;DHT22;49000;50.698;13.322;2023-02-08T16:22:18;-2.90;99.90
62904;DHT22;49000;50.698;13.322;2023-02-08T16:24:46;-3.20;99.90
62904;DHT22;49000;50.698;13.322;2023-02-08T16:27:29;-3.30;99.90
62904;DHT22;49000;50.698;13.322;2023-02-08T16:29:55;-3.20;99.90
62904;DHT22;49000;50.698;13.322;2023-02-08T16:32:29;-3.30;99.90
62904;DHT22;49000;50.698;13.322;2023-02-08T16:34:55;-3.30;99.90
62904;DHT22;49000;50.698;13.322;2023-02-08T16:37:30;-3.90;99.90
62904;DHT22;49000;50.698;13.322;2023-02-08T16:39:58;-3.50;99.90
62904;DHT22;49000;50.698;13.322;2023-02-08T16:42:26;-3.50;99.90
62904;DHT22;49000;50.698;13.322;2023-02-08T16:45:13;-4.00;99.90
62904;DHT22;49000;50.698;13.322;2023-02-08T16:47:41;-3.80;99.90
62904;DHT22;49000;50.698;13.322;2023-02-08T16:50:14;-3.50;99.90
62904;DHT22;49000;50.698;13.322;2023-02-08T16:52:40;-3.70;99.90
62904;DHT22;49000;50.698;13.322;2023-02-08T16:55:06;-3.60;99.90
62904;DHT22;49000;50.698;13.322;2023-02-08T16:57:44;-3.60;99.90
62904;DHT22;49000;50.698;13.322;2023-02-08T17:00:24;-3.50;99.90
62904;DHT22;49000;50.698;13.322;2023-02-08T17:02:50;-3.80;99.90
62904;DHT22;49000;50.698;13.322;2023-02-08T17:05:19;-3.70;99.90
62904;DHT22;49000;50.698;13.322;2023-02-08T17:07:45;-3.80;99.90
62904;DHT22;49000;50.698;13.322;2023-02-08T17:10:26;-4.10;99.90